createdAt,value
2022-11-25T00:01:24.309Z,20.02
2022-11-25T00:03:53.855Z,18.40
2022-11-25T00:06:39.440Z,20.08
2022-11-25T00:09:10.332Z,17.52
2022-11-25T00:11:40.251Z,17.73
2022-11-25T00:14:10.492Z,16.20
2022-11-25T00:16:37.839Z,16.80
2022-11-25T00:19:05.194Z,17.33
2022-11-25T00:21:33.801Z,18.15
2022-11-25T00:24:06.239Z,15.85
2022-11-25T00:26:35.518Z,17.25
2022-11-25T00:29:06.494Z,16.45
2022-11-25T00:31:37.748Z,17.15
2022-11-25T00:34:05.380Z,16.80
2022-11-25T00:36:36.860Z,15.85
2022-11-25T00:39:11.329Z,17.67
2022-11-25T00:41:57.668Z,15.95
2022-11-25T00:44:39.634Z,15.68
2022-11-25T00:47:18.835Z,15.50
2022-11-25T00:49:51.154Z,17.33
2022-11-25T00:52:20.974Z,16.98
2022-11-25T00:54:49.788Z,17.23
2022-11-25T00:57:19.376Z,17.08
2022-11-25T00:59:47.146Z,17.27
2022-11-25T01:02:16.075Z,17.37
2022-11-25T01:04:44.963Z,17.48
2022-11-25T01:07:15.661Z,16.40
2022-11-25T01:09:43.341Z,17.50
2022-11-25T01:12:10.698Z,15.85
2022-11-25T01:14:38.459Z,16.58
2022-11-25T01:17:06.527Z,16.40
2022-11-25T01:19:35.083Z,17.55
2022-11-25T01:22:02.680Z,17.35
2022-11-25T01:24:30.291Z,16.83
2022-11-25T01:26:57.646Z,16.48
2022-11-25T01:29:25.202Z,17.02
2022-11-25T01:31:57.652Z,17.02
2022-11-25T01:34:26.533Z,16.87
2022-11-25T01:36:57.353Z,17.37
2022-11-25T01:39:30.390Z,18.83
2022-11-25T01:42:00.323Z,17.90
2022-11-25T01:44:29.063Z,17.58
2022-11-25T01:47:17.023Z,18.33
2022-11-25T01:49:45.921Z,19.15
2022-11-25T01:52:27.175Z,18.50
2022-11-25T01:55:00.194Z,18.70
2022-11-25T01:57:56.190Z,16.92
2022-11-25T02:00:25.620Z,16.00
2022-11-25T02:02:55.295Z,17.48
2022-11-25T02:05:36.568Z,19.08
2022-11-25T02:08:04.693Z,19.60
2022-11-25T02:10:32.615Z,17.87
2022-11-25T02:13:00.345Z,17.83
2022-11-25T02:15:29.334Z,17.77
2022-11-25T02:17:56.823Z,17.52
2022-11-25T02:20:25.780Z,18.17
2022-11-25T02:23:30.966Z,18.20
2022-11-25T02:25:59.829Z,20.35
2022-11-25T02:28:30.487Z,19.12
2022-11-25T02:30:58.716Z,19.83
2022-11-25T02:33:27.344Z,18.05
2022-11-25T02:35:58.204Z,19.92
2022-11-25T02:38:36.674Z,18.50
2022-11-25T02:41:16.998Z,18.25
2022-11-25T02:43:44.984Z,17.85
2022-11-25T02:46:20.327Z,18.48
2022-11-25T02:49:08.321Z,16.37
2022-11-25T02:51:38.394Z,18.85
2022-11-25T02:54:06.585Z,17.37
2022-11-25T02:56:35.472Z,18.50
2022-11-25T02:59:03.799Z,19.27
2022-11-25T03:01:31.840Z,17.58
2022-11-25T03:03:59.640Z,18.70
2022-11-25T03:06:29.247Z,18.80
2022-11-25T03:08:57.793Z,17.45
2022-11-25T03:11:47.045Z,18.83
2022-11-25T03:14:14.812Z,19.77
2022-11-25T03:16:42.642Z,21.23
2022-11-25T03:19:10.040Z,23.08
2022-11-25T03:21:37.613Z,19.70
2022-11-25T03:24:05.266Z,18.83
2022-11-25T03:26:32.913Z,21.30
2022-11-25T03:29:00.506Z,20.73
2022-11-25T03:31:28.098Z,20.25
2022-11-25T03:33:55.843Z,19.67
2022-11-25T03:36:23.709Z,19.23
2022-11-25T03:38:51.158Z,18.58
2022-11-25T03:41:18.618Z,17.02
2022-11-25T03:43:47.193Z,17.20
2022-11-25T03:46:14.923Z,16.55
2022-11-25T03:48:42.639Z,16.70
2022-11-25T03:51:10.358Z,17.48
2022-11-25T03:53:38.379Z,18.15
2022-11-25T03:56:06.322Z,18.52
2022-11-25T03:58:34.890Z,18.60
2022-11-25T04:01:04.082Z,17.77
2022-11-25T04:03:31.900Z,19.12
2022-11-25T04:05:59.345Z,19.00
2022-11-25T04:08:27.846Z,17.65
2022-11-25T04:10:55.757Z,17.60
2022-11-25T04:13:23.704Z,19.40
2022-11-25T04:15:52.031Z,19.27
2022-11-25T04:18:20.483Z,20.05
2022-11-25T04:20:49.854Z,18.77
2022-11-25T04:23:17.352Z,20.40
2022-11-25T04:25:45.208Z,19.65
2022-11-25T04:28:12.539Z,19.33
2022-11-25T04:30:41.229Z,18.85
2022-11-25T04:33:09.253Z,19.42
2022-11-25T04:35:36.902Z,19.50
2022-11-25T04:38:04.381Z,19.67
2022-11-25T04:40:33.818Z,19.77
2022-11-25T04:43:06.057Z,20.75
2022-11-25T04:48:29.447Z,24.17
2022-11-25T04:50:57.828Z,21.83
2022-11-25T04:53:25.211Z,22.20
2022-11-25T04:55:53.351Z,21.42
2022-11-25T04:58:40.964Z,21.55
2022-11-25T05:01:08.633Z,19.33
2022-11-25T05:03:36.960Z,22.75
2022-11-25T05:06:08.521Z,21.42
2022-11-25T05:08:36.513Z,20.77
2022-11-25T05:11:03.975Z,22.58
2022-11-25T05:13:31.453Z,18.98
2022-11-25T05:16:00.266Z,17.05
2022-11-25T05:18:27.776Z,17.75
2022-11-25T05:20:55.274Z,18.40
2022-11-25T05:23:23.032Z,18.67
2022-11-25T05:25:50.409Z,19.12
2022-11-25T05:28:19.807Z,19.33
2022-11-25T05:30:48.334Z,20.83
2022-11-25T05:33:17.125Z,21.62
2022-11-25T05:35:44.489Z,22.40
2022-11-25T05:38:12.133Z,23.40
2022-11-25T05:40:39.518Z,24.92
2022-11-25T05:43:07.160Z,23.92
2022-11-25T05:45:35.120Z,25.20
2022-11-25T05:48:03.804Z,25.37
2022-11-25T05:50:32.337Z,24.27
2022-11-25T05:53:03.310Z,22.75
2022-11-25T05:55:30.776Z,22.65
2022-11-25T05:57:59.503Z,24.15
2022-11-25T06:00:27.291Z,23.62
2022-11-25T06:02:55.088Z,22.87
2022-11-25T06:05:22.568Z,20.83
2022-11-25T06:07:50.426Z,20.95
2022-11-25T06:10:19.039Z,20.02
2022-11-25T06:12:46.729Z,20.23
2022-11-25T06:15:15.118Z,21.25
2022-11-25T06:17:42.756Z,23.30
2022-11-25T06:20:11.007Z,24.02
2022-11-25T06:22:38.382Z,22.90
2022-11-25T06:25:08.165Z,22.65
2022-11-25T06:28:04.542Z,21.58
2022-11-25T06:30:23.798Z,20.00
2022-11-25T06:32:54.564Z,21.55
2022-11-25T06:35:22.967Z,20.17
2022-11-25T06:37:51.058Z,20.70
2022-11-25T06:40:18.536Z,19.85
2022-11-25T06:42:45.873Z,20.45
2022-11-25T06:45:13.450Z,20.58
2022-11-25T06:47:40.755Z,19.67
2022-11-25T06:50:08.246Z,19.08
2022-11-25T06:52:35.962Z,19.73
2022-11-25T06:55:04.719Z,20.73
2022-11-25T06:57:32.551Z,19.42
2022-11-25T07:00:00.192Z,21.27
2022-11-25T07:02:27.894Z,20.62
2022-11-25T07:04:55.309Z,21.48
2022-11-25T07:07:22.869Z,21.00
2022-11-25T07:09:50.302Z,21.80
2022-11-25T07:12:17.605Z,20.58
2022-11-25T07:14:45.229Z,20.98
2022-11-25T07:17:13.446Z,21.77
2022-11-25T07:19:41.124Z,19.87
2022-11-25T07:22:08.893Z,18.92
2022-11-25T07:24:36.895Z,22.30
2022-11-25T07:27:06.896Z,21.67
2022-11-25T07:29:57.961Z,18.80
2022-11-25T07:32:23.111Z,20.25
2022-11-25T07:34:51.537Z,19.17
2022-11-25T07:37:18.855Z,18.65
2022-11-25T07:39:47.474Z,19.23
2022-11-25T07:42:15.193Z,18.48
2022-11-25T07:44:42.568Z,18.62
2022-11-25T07:47:10.237Z,24.05
2022-11-25T07:49:39.969Z,20.70
2022-11-25T07:52:07.352Z,20.77
2022-11-25T07:54:34.675Z,22.83
2022-11-25T07:57:02.618Z,23.20
2022-11-25T07:59:30.048Z,21.27
2022-11-25T08:01:57.502Z,20.70
2022-11-25T08:04:25.274Z,20.17
2022-11-25T08:06:53.420Z,19.50
2022-11-25T08:09:22.863Z,19.77
2022-11-25T08:11:50.766Z,20.70
2022-11-25T08:14:18.427Z,20.95
2022-11-25T08:16:45.769Z,19.48
2022-11-25T08:19:15.818Z,20.42
2022-11-25T08:21:43.324Z,19.42
2022-11-25T08:24:15.894Z,19.02
2022-11-25T08:26:43.532Z,18.65
2022-11-25T08:29:15.435Z,17.62
2022-11-25T08:31:43.260Z,18.10
2022-11-25T08:34:17.707Z,17.87
2022-11-25T08:36:48.650Z,17.20
2022-11-25T08:39:44.266Z,17.23
2022-11-25T08:42:05.671Z,18.17
2022-11-25T08:44:33.501Z,18.05
2022-11-25T08:47:01.032Z,18.12
2022-11-25T08:49:31.152Z,19.12
2022-11-25T08:52:01.079Z,18.52
2022-11-25T08:54:28.690Z,16.40
2022-11-25T08:56:56.356Z,18.50
2022-11-25T08:59:25.263Z,18.67
2022-11-25T09:01:53.037Z,18.75
2022-11-25T09:04:20.449Z,18.15
2022-11-25T09:06:47.801Z,18.17
2022-11-25T09:09:15.399Z,16.65
2022-11-25T09:11:42.785Z,16.83
2022-11-25T09:14:10.240Z,16.40
2022-11-25T09:16:38.197Z,15.57
2022-11-25T09:19:06.669Z,15.45
2022-11-25T09:21:34.073Z,15.95
2022-11-25T09:24:01.674Z,15.57
2022-11-25T09:26:31.528Z,13.30
2022-11-25T09:28:58.905Z,13.62
2022-11-25T09:31:26.584Z,13.82
2022-11-25T09:33:54.015Z,14.82
2022-11-25T09:36:23.319Z,14.52
2022-11-25T09:38:51.571Z,13.82
2022-11-25T09:42:02.430Z,12.45
2022-11-25T09:45:10.243Z,13.45
2022-11-25T09:47:52.913Z,12.95
2022-11-25T09:50:41.355Z,12.37
2022-11-25T09:55:50.852Z,13.30
2022-11-25T09:58:33.542Z,13.48
2022-11-25T10:01:05.578Z,13.27
2022-11-25T10:03:33.804Z,12.23
2022-11-25T10:06:18.406Z,13.68
2022-11-25T10:08:58.614Z,13.02
2022-11-25T10:11:46.194Z,14.48
2022-11-25T10:14:31.106Z,14.27
2022-11-25T10:17:04.099Z,14.43
2022-11-25T10:19:55.448Z,13.82
2022-11-25T10:22:25.955Z,15.13
2022-11-25T10:24:57.679Z,14.87
2022-11-25T10:27:40.475Z,14.23
2022-11-25T10:30:21.406Z,13.57
2022-11-25T10:33:02.798Z,12.02
2022-11-25T10:35:35.719Z,12.00
2022-11-25T10:38:06.995Z,9.75
2022-11-25T10:40:34.628Z,9.45
2022-11-25T10:43:05.735Z,6.72
2022-11-25T10:45:40.621Z,8.07
2022-11-25T10:48:30.318Z,8.18
2022-11-25T10:51:38.138Z,7.40
2022-11-25T10:54:39.211Z,8.05
2022-11-25T10:57:19.994Z,9.90
2022-11-25T10:59:59.016Z,8.98
2022-11-25T11:02:35.549Z,12.95
2022-11-25T11:05:18.493Z,12.68
2022-11-25T11:07:47.132Z,14.20
2022-11-25T11:10:14.752Z,15.38
2022-11-25T11:13:05.029Z,13.90
2022-11-25T11:15:41.685Z,13.82
2022-11-25T11:18:30.568Z,12.88
2022-11-25T11:20:59.824Z,13.82
2022-11-25T11:23:28.686Z,15.00
2022-11-25T11:25:59.951Z,15.45
2022-11-25T11:28:39.755Z,14.93
2022-11-25T11:31:17.709Z,13.38
2022-11-25T11:33:48.399Z,13.82
2022-11-25T11:36:21.570Z,14.60
2022-11-25T11:39:06.634Z,13.68
2022-11-25T11:41:40.231Z,13.82
2022-11-25T11:44:45.183Z,13.63
2022-11-25T11:47:28.260Z,12.68
2022-11-25T11:50:14.681Z,11.20
2022-11-25T11:52:44.699Z,11.23
2022-11-25T11:56:05.656Z,10.70
2022-11-25T11:58:45.071Z,9.82
2022-11-25T12:01:41.041Z,10.30
2022-11-25T12:04:18.002Z,10.75
2022-11-25T12:07:16.673Z,13.93
2022-11-25T12:09:50.403Z,22.42
2022-11-25T12:12:19.382Z,25.05
2022-11-25T12:14:51.089Z,11.93
2022-11-25T12:17:27.491Z,15.07
2022-11-25T12:20:04.089Z,10.73
2022-11-25T12:22:49.319Z,9.80
2022-11-25T12:25:22.849Z,13.18
2022-11-25T12:27:57.026Z,10.32
2022-11-25T12:30:29.904Z,11.63
2022-11-25T12:33:21.167Z,11.40
2022-11-25T12:35:57.471Z,11.32
2022-11-25T12:38:37.883Z,10.65
2022-11-25T12:41:22.196Z,8.60
2022-11-25T12:44:00.581Z,8.48
2022-11-25T12:46:39.576Z,8.40
2022-11-25T12:49:14.248Z,8.10
2022-11-25T12:51:57.770Z,9.05
2022-11-25T12:54:49.109Z,9.65
2022-11-25T12:57:22.583Z,7.85
2022-11-25T13:00:32.702Z,6.95
2022-11-25T13:03:21.153Z,8.00
2022-11-25T13:06:22.715Z,7.90
2022-11-25T13:09:11.932Z,6.93
2022-11-25T13:12:18.018Z,7.45
2022-11-25T13:15:07.959Z,7.47
2022-11-25T13:17:40.110Z,9.00
2022-11-25T13:20:29.644Z,8.77
2022-11-25T13:23:13.222Z,8.15
2022-11-25T13:25:43.129Z,8.15
2022-11-25T13:28:32.789Z,8.93
2022-11-25T13:31:15.916Z,8.98
2022-11-25T13:33:43.341Z,8.45
2022-11-25T13:36:23.818Z,9.52
2022-11-25T13:38:51.064Z,9.48
2022-11-25T13:41:48.813Z,9.02
2022-11-25T13:44:22.087Z,8.98
2022-11-25T13:46:52.322Z,8.57
2022-11-25T13:49:44.215Z,32.42
2022-11-25T13:52:12.073Z,10.65
2022-11-25T13:54:44.586Z,11.50
2022-11-25T13:57:12.105Z,11.02
2022-11-25T13:59:42.123Z,10.93
2022-11-25T14:02:27.818Z,9.18
2022-11-25T14:05:00.762Z,7.68
2022-11-25T14:07:51.713Z,9.00
2022-11-25T14:10:31.184Z,10.00
2022-11-25T14:13:23.618Z,20.35
2022-11-25T14:16:07.099Z,8.25
2022-11-25T14:22:18.732Z,7.83
2022-11-25T14:24:49.598Z,10.02
2022-11-25T14:27:28.209Z,8.65
2022-11-25T14:30:19.343Z,8.07
2022-11-25T14:32:58.460Z,9.07
2022-11-25T14:35:45.078Z,8.95
2022-11-25T14:38:23.408Z,10.05
2022-11-25T14:41:10.427Z,10.27
2022-11-25T14:43:42.321Z,12.85
2022-11-25T14:46:21.357Z,13.35
2022-11-25T14:48:56.506Z,12.52
2022-11-25T14:51:26.476Z,11.60
2022-11-25T14:53:54.467Z,11.65
2022-11-25T14:56:30.116Z,13.75
2022-11-25T14:58:58.893Z,15.48
2022-11-25T15:01:31.109Z,19.50
2022-11-25T15:04:15.821Z,47.47
2022-11-25T15:06:49.020Z,83.50
2022-11-25T15:09:22.506Z,66.68
2022-11-25T15:12:13.722Z,56.05
2022-11-25T15:14:43.071Z,28.58
2022-11-25T15:17:24.656Z,28.27
2022-11-25T15:19:52.742Z,24.98
2022-11-25T15:22:23.514Z,38.95
2022-11-25T15:24:55.824Z,45.72
2022-11-25T15:27:26.380Z,54.10
2022-11-25T15:29:55.559Z,50.40
2022-11-25T15:32:25.520Z,47.50
2022-11-25T15:34:53.788Z,37.80
2022-11-25T15:37:21.485Z,32.63
2022-11-25T15:39:48.817Z,32.15
2022-11-25T15:42:22.443Z,32.40
2022-11-25T15:44:55.194Z,30.27
2022-11-25T15:47:25.748Z,28.23
2022-11-25T15:50:00.616Z,26.27
2022-11-25T15:55:08.262Z,23.95
2022-11-25T15:57:37.077Z,26.50
2022-11-25T16:00:14.566Z,16.55
2022-11-25T16:02:42.171Z,16.83
2022-11-25T16:05:12.540Z,16.58
2022-11-25T16:07:52.125Z,14.35
2022-11-25T16:10:25.057Z,16.23
2022-11-25T16:13:23.609Z,15.02
2022-11-25T16:16:00.483Z,24.20
2022-11-25T16:18:41.874Z,25.85
2022-11-25T16:21:16.393Z,26.45
2022-11-25T16:24:06.932Z,23.83
2022-11-25T16:26:37.660Z,22.67
2022-11-25T16:29:31.366Z,22.62
2022-11-25T16:32:00.514Z,19.27
2022-11-25T16:34:29.162Z,17.75
2022-11-25T16:36:56.615Z,18.42
2022-11-25T16:39:24.223Z,21.48
2022-11-25T16:41:57.373Z,37.28
2022-11-25T16:44:26.584Z,43.33
2022-11-25T16:46:55.017Z,33.63
2022-11-25T16:49:22.737Z,34.38
2022-11-25T16:51:51.012Z,31.05
2022-11-25T16:54:19.617Z,29.70
2022-11-25T16:56:48.993Z,24.42
2022-11-25T16:59:19.814Z,27.87
2022-11-25T17:01:48.007Z,17.55
2022-11-25T17:04:16.160Z,17.40
2022-11-25T17:06:50.586Z,19.10
2022-11-25T17:09:32.379Z,18.15
2022-11-25T17:12:00.889Z,34.15
2022-11-25T17:14:31.613Z,71.18
2022-11-25T17:17:00.660Z,66.12
2022-11-25T17:19:28.593Z,54.90
2022-11-25T17:21:56.055Z,39.53
2022-11-25T17:24:24.792Z,40.35
2022-11-25T17:26:59.333Z,53.42
2022-11-25T17:29:33.235Z,26.35
2022-11-25T17:32:02.594Z,23.33
2022-11-25T17:34:33.685Z,19.65
2022-11-25T17:37:06.934Z,19.43
2022-11-25T17:39:35.140Z,17.58
2022-11-25T17:42:05.201Z,17.62
2022-11-25T17:44:32.859Z,17.85
2022-11-25T17:47:00.710Z,17.58
2022-11-25T17:49:28.813Z,26.48
2022-11-25T17:51:58.041Z,27.25
2022-11-25T17:54:25.964Z,25.33
2022-11-25T17:56:54.407Z,25.20
2022-11-25T17:59:33.246Z,24.80
2022-11-25T18:02:01.143Z,26.10
2022-11-25T18:04:36.517Z,28.95
2022-11-25T18:07:04.229Z,30.67
2022-11-25T18:09:32.139Z,33.80
2022-11-25T18:12:01.535Z,99.80
2022-11-25T18:14:32.453Z,113.85
2022-11-25T18:17:07.726Z,56.00
2022-11-25T18:19:35.324Z,50.58
2022-11-25T18:22:12.959Z,295.90
2022-11-25T18:24:41.388Z,66.12
2022-11-25T18:27:19.937Z,25.23
2022-11-25T18:29:47.978Z,23.38
2022-11-25T18:32:16.079Z,23.10
2022-11-25T18:34:43.953Z,20.08
2022-11-25T18:37:12.129Z,19.52
2022-11-25T18:39:40.273Z,17.33
2022-11-25T18:42:14.973Z,19.62
2022-11-25T18:44:44.899Z,22.30
2022-11-25T18:47:14.103Z,23.33
2022-11-25T18:49:41.916Z,26.75
2022-11-25T18:52:10.088Z,33.45
2022-11-25T18:54:38.120Z,38.95
2022-11-25T18:57:06.319Z,56.50
2022-11-25T18:59:36.428Z,61.75
2022-11-25T19:02:09.355Z,86.95
2022-11-25T19:04:37.369Z,126.82
2022-11-25T19:07:05.406Z,118.57
2022-11-25T19:09:33.290Z,101.43
2022-11-25T19:12:01.993Z,91.72
2022-11-25T19:14:36.224Z,86.53
2022-11-25T19:19:38.522Z,88.37
2022-11-25T19:22:12.860Z,88.30
2022-11-25T19:24:40.996Z,91.23
2022-11-25T19:27:18.016Z,84.55
2022-11-25T19:29:46.513Z,55.80
2022-11-25T19:32:21.702Z,58.25
2022-11-25T19:34:57.672Z,45.20
2022-11-25T19:37:26.071Z,42.10
2022-11-25T19:39:55.152Z,40.90
2022-11-25T19:42:25.517Z,42.17
2022-11-25T19:44:54.774Z,43.03
2022-11-25T19:47:25.269Z,34.88
2022-11-25T19:49:55.314Z,38.13
2022-11-25T19:52:26.858Z,29.83
2022-11-25T19:54:55.098Z,22.60
2022-11-25T19:57:24.223Z,20.52
2022-11-25T19:59:51.894Z,23.12
2022-11-25T20:02:23.247Z,28.20
2022-11-25T20:04:54.137Z,28.08
2022-11-25T20:07:22.497Z,25.62
2022-11-25T20:09:51.591Z,29.65
2022-11-25T20:12:25.897Z,37.42
2022-11-25T20:14:54.553Z,40.55
2022-11-25T20:17:30.212Z,55.60
2022-11-25T20:20:00.649Z,83.00
2022-11-25T20:22:33.406Z,155.82
2022-11-25T20:25:02.841Z,50.05
2022-11-25T20:27:31.193Z,42.38
2022-11-25T20:30:03.458Z,55.60
2022-11-25T20:32:34.449Z,29.40
2022-11-25T20:35:02.518Z,38.50
2022-11-25T20:37:40.968Z,39.20
2022-11-25T20:40:17.223Z,33.65
2022-11-25T20:42:45.625Z,33.28
2022-11-25T20:45:15.600Z,33.90
2022-11-25T20:47:44.330Z,32.67
2022-11-25T20:50:15.747Z,33.10
2022-11-25T20:52:44.314Z,28.02
2022-11-25T20:55:20.712Z,28.80
2022-11-25T20:57:52.042Z,29.08
2022-11-25T21:00:25.145Z,26.80
2022-11-25T21:02:54.500Z,27.87
2022-11-25T21:05:21.953Z,31.30
2022-11-25T21:07:51.001Z,31.12
2022-11-25T21:10:20.763Z,30.08
2022-11-25T21:12:48.744Z,29.65
2022-11-25T21:15:21.487Z,29.02
2022-11-25T21:17:49.356Z,28.45
2022-11-25T21:20:17.836Z,28.23
2022-11-25T21:22:49.188Z,26.05
2022-11-25T21:25:18.659Z,20.90
2022-11-25T21:27:47.237Z,21.08
2022-11-25T21:30:27.659Z,20.15
2022-11-25T21:32:56.824Z,20.60
2022-11-25T21:35:34.881Z,22.58
2022-11-25T21:38:05.668Z,26.92
2022-11-25T21:40:41.153Z,30.30
2022-11-25T21:43:21.461Z,27.87
2022-11-25T21:45:53.077Z,26.58
2022-11-25T21:48:25.427Z,26.33
2022-11-25T21:50:53.200Z,29.08
2022-11-25T21:53:20.885Z,28.62
2022-11-25T21:55:48.588Z,30.35
2022-11-25T21:58:19.287Z,34.92
2022-11-25T22:01:05.369Z,39.50
2022-11-25T22:03:33.040Z,38.03
2022-11-25T22:06:00.385Z,34.83
2022-11-25T22:08:27.926Z,32.95
2022-11-25T22:10:55.934Z,29.27
2022-11-25T22:13:27.949Z,36.80
2022-11-25T22:15:57.160Z,37.63
2022-11-25T22:18:43.217Z,30.80
2022-11-25T22:21:14.919Z,31.15
2022-11-25T22:23:42.433Z,31.60
2022-11-25T22:26:21.266Z,28.33
2022-11-25T22:28:51.001Z,27.33
2022-11-25T22:31:19.615Z,22.35
2022-11-25T22:33:48.082Z,21.33
2022-11-25T22:36:28.931Z,20.83
2022-11-25T22:38:58.734Z,22.45
2022-11-25T22:41:27.108Z,21.77
2022-11-25T22:43:54.689Z,23.67
2022-11-25T22:46:22.084Z,22.00
2022-11-25T22:48:49.719Z,27.33
2022-11-25T22:51:18.755Z,25.08
2022-11-25T22:53:46.761Z,23.87
2022-11-25T22:56:19.432Z,23.30
2022-11-25T22:58:47.068Z,22.10
2022-11-25T23:01:16.017Z,24.30
2022-11-25T23:03:43.930Z,24.37
2022-11-25T23:06:14.583Z,22.80
2022-11-25T23:08:42.182Z,22.33
2022-11-25T23:11:16.103Z,22.33
2022-11-25T23:13:43.767Z,21.85
2022-11-25T23:16:11.395Z,22.73
2022-11-25T23:18:42.767Z,23.17
2022-11-25T23:21:19.669Z,29.33
2022-11-25T23:23:46.999Z,25.48
2022-11-25T23:29:00.002Z,23.30
2022-11-25T23:31:27.644Z,22.65
2022-11-25T23:33:55.019Z,23.75
2022-11-25T23:36:25.971Z,23.27
2022-11-25T23:38:56.175Z,21.92
2022-11-25T23:41:34.304Z,22.05
2022-11-25T23:44:10.620Z,22.60
2022-11-25T23:46:38.082Z,21.98
2022-11-25T23:49:07.590Z,22.65
2022-11-25T23:51:34.901Z,26.40
2022-11-25T23:54:02.299Z,26.25
2022-11-25T23:56:29.970Z,27.40
2022-11-25T23:58:57.319Z,26.87
